createdAt,value
2023-07-03T00:00:01.701Z,100.00
2023-07-03T00:02:28.295Z,100.00
2023-07-03T00:04:55.094Z,100.00
2023-07-03T00:07:21.710Z,100.00
2023-07-03T00:09:48.556Z,100.00
2023-07-03T00:12:15.055Z,100.00
2023-07-03T00:14:41.524Z,100.00
2023-07-03T00:17:11.779Z,100.00
2023-07-03T00:19:38.287Z,100.00
2023-07-03T00:22:05.260Z,100.00
2023-07-03T00:24:32.938Z,100.00
2023-07-03T00:27:00.145Z,100.00
2023-07-03T00:29:30.614Z,100.00
2023-07-03T00:31:57.310Z,100.00
2023-07-03T00:34:24.191Z,100.00
2023-07-03T00:36:50.667Z,100.00
2023-07-03T00:39:17.158Z,100.00
2023-07-03T00:41:43.730Z,100.00
2023-07-03T00:44:16.618Z,100.00
2023-07-03T00:46:45.400Z,100.00
2023-07-03T00:49:12.768Z,100.00
2023-07-03T00:51:43.376Z,100.00
2023-07-03T00:54:09.891Z,100.00
2023-07-03T00:56:36.546Z,100.00
2023-07-03T00:59:04.871Z,100.00
2023-07-03T01:01:58.787Z,100.00
2023-07-03T01:04:32.416Z,100.00
2023-07-03T01:07:27.213Z,100.00
2023-07-03T01:10:01.192Z,100.00
2023-07-03T01:12:31.270Z,100.00
2023-07-03T01:15:04.872Z,100.00
2023-07-03T01:17:33.142Z,100.00
2023-07-03T01:20:02.581Z,100.00
2023-07-03T01:22:37.622Z,100.00
2023-07-03T01:25:11.491Z,100.00
2023-07-03T01:27:42.492Z,100.00
2023-07-03T01:30:13.205Z,100.00
2023-07-03T01:32:40.696Z,100.00
2023-07-03T01:35:12.702Z,100.00
2023-07-03T01:37:44.617Z,100.00
2023-07-03T01:40:13.321Z,100.00
2023-07-03T01:42:42.178Z,100.00
2023-07-03T01:45:10.183Z,100.00
2023-07-03T01:47:38.254Z,100.00
2023-07-03T01:50:08.844Z,100.00
2023-07-03T01:52:47.870Z,100.00
2023-07-03T01:55:24.988Z,100.00
2023-07-03T01:58:10.332Z,100.00
2023-07-03T02:00:49.645Z,100.00
2023-07-03T02:03:25.649Z,100.00
2023-07-03T02:05:56.290Z,100.00
2023-07-03T02:08:25.117Z,100.00
2023-07-03T02:10:51.631Z,100.00
2023-07-03T02:13:18.097Z,100.00
2023-07-03T02:15:44.628Z,100.00
2023-07-03T02:18:18.712Z,100.00
2023-07-03T02:20:46.002Z,100.00
2023-07-03T02:23:12.582Z,100.00
2023-07-03T02:25:39.077Z,100.00
2023-07-03T02:28:07.499Z,100.00
2023-07-03T02:30:33.998Z,100.00
2023-07-03T02:33:00.565Z,100.00
2023-07-03T02:35:27.140Z,100.00
2023-07-03T02:37:53.927Z,100.00
2023-07-03T02:40:20.458Z,100.00
2023-07-03T02:42:46.972Z,100.00
2023-07-03T02:45:13.433Z,100.00
2023-07-03T02:47:40.097Z,100.00
2023-07-03T02:50:08.525Z,100.00
2023-07-03T02:52:35.064Z,100.00
2023-07-03T02:55:01.604Z,100.00
2023-07-03T02:57:29.364Z,100.00
2023-07-03T02:59:55.970Z,100.00
2023-07-03T03:02:22.577Z,100.00
2023-07-03T03:04:49.398Z,100.00
2023-07-03T03:07:16.436Z,100.00
2023-07-03T03:09:42.962Z,100.00
2023-07-03T03:12:10.071Z,100.00
2023-07-03T03:14:36.787Z,100.00
2023-07-03T03:17:03.623Z,100.00
2023-07-03T03:19:30.126Z,100.00
2023-07-03T03:21:56.681Z,100.00
2023-07-03T03:24:23.317Z,100.00
2023-07-03T03:26:49.838Z,100.00
2023-07-03T03:29:16.340Z,100.00
2023-07-03T03:31:42.844Z,100.00
2023-07-03T03:34:09.421Z,100.00
2023-07-03T03:36:39.935Z,100.00
2023-07-03T03:39:07.146Z,100.00
2023-07-03T03:41:33.640Z,100.00
2023-07-03T03:44:00.146Z,100.00
2023-07-03T03:46:26.733Z,100.00
2023-07-03T03:48:53.420Z,100.00
2023-07-03T03:51:20.104Z,100.00
2023-07-03T03:53:46.593Z,100.00
2023-07-03T03:56:13.113Z,100.00
2023-07-03T03:58:39.690Z,100.00
2023-07-03T04:01:06.235Z,100.00
2023-07-03T04:03:32.779Z,100.00
2023-07-03T04:05:59.804Z,100.00
2023-07-03T04:08:26.297Z,100.00
2023-07-03T04:10:52.810Z,100.00
2023-07-03T04:13:19.374Z,100.00
2023-07-03T04:15:58.905Z,100.00
2023-07-03T04:18:26.913Z,100.00
2023-07-03T04:20:53.479Z,100.00
2023-07-03T04:23:20.158Z,100.00
2023-07-03T04:25:47.228Z,100.00
2023-07-03T04:28:14.510Z,100.00
2023-07-03T04:30:41.031Z,100.00
2023-07-03T04:33:07.642Z,100.00
2023-07-03T04:35:34.234Z,100.00
2023-07-03T04:38:02.591Z,100.00
2023-07-03T04:40:31.039Z,100.00
2023-07-03T04:42:57.908Z,100.00
2023-07-03T04:45:25.878Z,100.00
2023-07-03T04:47:53.067Z,100.00
2023-07-03T04:50:19.611Z,100.00
2023-07-03T04:52:47.585Z,100.00
2023-07-03T04:55:14.173Z,100.00
2023-07-03T04:57:42.044Z,100.00
2023-07-03T05:00:15.948Z,100.00
2023-07-03T05:02:47.406Z,100.00
2023-07-03T05:05:15.588Z,100.00
2023-07-03T05:07:43.417Z,100.00
2023-07-03T05:10:11.730Z,100.00
2023-07-03T05:12:38.618Z,100.00
2023-07-03T05:15:08.482Z,100.00
2023-07-03T05:17:39.509Z,100.00
2023-07-03T05:20:12.288Z,100.00
2023-07-03T05:22:40.544Z,100.00
2023-07-03T05:25:09.073Z,100.00
2023-07-03T05:27:36.513Z,100.00
2023-07-03T05:30:04.572Z,100.00
2023-07-03T05:32:31.306Z,100.00
2023-07-03T05:34:57.949Z,100.00
2023-07-03T05:37:24.476Z,100.00
2023-07-03T05:39:51.002Z,100.00
2023-07-03T05:42:18.099Z,100.00
2023-07-03T05:44:45.656Z,100.00
2023-07-03T05:47:13.331Z,100.00
2023-07-03T05:49:40.458Z,100.00
2023-07-03T05:52:07.467Z,100.00
2023-07-03T05:54:34.039Z,100.00
2023-07-03T05:57:10.430Z,100.00
2023-07-03T05:59:38.813Z,100.00
2023-07-03T06:02:14.280Z,100.00
2023-07-03T06:04:41.774Z,100.00
2023-07-03T06:07:09.275Z,100.00
2023-07-03T06:09:36.787Z,100.00
2023-07-03T06:12:04.152Z,100.00
2023-07-03T06:14:32.943Z,100.00
2023-07-03T06:17:00.138Z,100.00
2023-07-03T06:19:28.154Z,100.00
2023-07-03T06:21:55.522Z,100.00
2023-07-03T06:24:22.200Z,100.00
2023-07-03T06:26:48.892Z,100.00
2023-07-03T06:29:15.826Z,100.00
2023-07-03T06:31:43.012Z,100.00
2023-07-03T06:34:10.207Z,100.00
2023-07-03T06:36:36.675Z,100.00
2023-07-03T06:39:05.938Z,97.59
2023-07-03T06:41:35.838Z,97.16
2023-07-03T06:44:04.670Z,94.92
2023-07-03T06:46:32.397Z,93.37
2023-07-03T06:48:59.039Z,94.26
2023-07-03T06:51:26.344Z,91.19
2023-07-03T06:53:53.262Z,92.37
2023-07-03T06:56:21.282Z,92.40
2023-07-03T06:58:51.036Z,90.48
2023-07-03T07:01:21.223Z,90.77
2023-07-03T07:03:48.031Z,90.15
2023-07-03T07:06:17.867Z,90.00
2023-07-03T07:08:44.645Z,88.21
2023-07-03T07:11:14.146Z,88.25
2023-07-03T07:13:46.373Z,88.78
2023-07-03T07:16:22.124Z,88.93
2023-07-03T07:18:51.932Z,88.79
2023-07-03T07:21:18.603Z,88.13
2023-07-03T07:23:54.808Z,87.39
2023-07-03T07:26:22.229Z,85.66
2023-07-03T07:28:48.727Z,85.07
2023-07-03T07:31:24.222Z,84.90
2023-07-03T07:33:51.630Z,80.61
2023-07-03T07:36:21.488Z,83.13
2023-07-03T07:38:50.193Z,81.76
2023-07-03T07:41:16.827Z,78.51
2023-07-03T07:43:43.312Z,78.16
2023-07-03T07:46:09.968Z,78.07
2023-07-03T07:48:36.490Z,78.65
2023-07-03T07:51:08.338Z,73.86
2023-07-03T07:53:35.154Z,69.40
2023-07-03T07:56:01.650Z,69.58
2023-07-03T07:58:28.471Z,69.67
2023-07-03T08:00:57.615Z,72.52
2023-07-03T08:03:25.211Z,73.12
2023-07-03T08:05:57.461Z,74.09
2023-07-03T08:08:24.053Z,73.26
2023-07-03T08:10:55.082Z,72.51
2023-07-03T08:13:22.307Z,72.62
2023-07-03T08:15:49.480Z,71.93
2023-07-03T08:18:17.116Z,71.58
2023-07-03T08:20:44.279Z,71.93
2023-07-03T08:23:11.501Z,73.15
2023-07-03T08:25:38.550Z,73.35
2023-07-03T08:28:05.600Z,70.80
2023-07-03T08:30:32.599Z,65.70
2023-07-03T08:32:59.123Z,64.93
2023-07-03T08:37:56.087Z,65.11
2023-07-03T08:40:23.878Z,65.50
2023-07-03T08:42:54.424Z,63.42
2023-07-03T08:45:24.223Z,62.87
2023-07-03T08:47:55.344Z,58.84
2023-07-03T08:50:35.689Z,57.94
2023-07-03T08:53:05.018Z,55.56
2023-07-03T08:55:43.673Z,52.57
2023-07-03T08:58:10.590Z,49.69
2023-07-03T09:01:07.948Z,48.15
2023-07-03T09:03:59.002Z,45.44
2023-07-03T09:06:44.351Z,45.68
2023-07-03T09:09:28.959Z,41.44
2023-07-03T09:12:19.934Z,42.56
2023-07-03T09:14:56.568Z,38.46
2023-07-03T09:17:25.289Z,38.71
2023-07-03T09:19:53.873Z,38.68
2023-07-03T09:22:34.027Z,37.89
2023-07-03T09:25:04.815Z,36.32
2023-07-03T09:27:32.630Z,39.74
2023-07-03T09:30:06.161Z,40.90
2023-07-03T09:32:33.836Z,41.19
2023-07-03T09:35:09.980Z,42.03
2023-07-03T09:37:40.492Z,40.82
2023-07-03T09:40:11.363Z,39.37
2023-07-03T09:42:38.296Z,39.81
2023-07-03T09:45:13.972Z,40.41
2023-07-03T09:47:43.444Z,38.49
2023-07-03T09:50:10.247Z,36.88
2023-07-03T09:53:03.104Z,38.78
2023-07-03T09:55:33.472Z,39.52
2023-07-03T09:58:00.379Z,40.61
2023-07-03T10:00:27.721Z,41.57
2023-07-03T10:08:04.930Z,41.75
2023-07-03T10:13:15.337Z,43.12
2023-07-03T10:15:43.206Z,43.61
2023-07-03T10:18:21.426Z,44.46
2023-07-03T10:20:51.289Z,44.41
2023-07-03T10:23:24.323Z,44.43
2023-07-03T10:25:55.986Z,44.61
2023-07-03T10:28:27.660Z,44.29
2023-07-03T10:30:59.652Z,44.50
2023-07-03T10:33:31.844Z,44.78
2023-07-03T10:35:59.013Z,45.42
2023-07-03T10:38:49.705Z,43.80
2023-07-03T10:41:25.938Z,44.44
2023-07-03T10:44:07.692Z,45.02
2023-07-03T10:46:43.987Z,44.87
2023-07-03T10:49:22.409Z,41.24
2023-07-03T10:51:56.615Z,40.72
2023-07-03T10:54:32.639Z,38.85
2023-07-03T10:57:02.372Z,40.31
2023-07-03T10:59:34.291Z,40.31
2023-07-03T11:02:28.056Z,41.31
2023-07-03T11:05:09.613Z,42.68
2023-07-03T11:08:05.052Z,45.27
2023-07-03T11:10:36.594Z,45.45
2023-07-03T11:13:15.885Z,44.81
2023-07-03T11:15:51.326Z,44.06
2023-07-03T11:24:00.906Z,44.33
2023-07-03T11:29:10.923Z,45.48
2023-07-03T11:31:42.507Z,45.72
2023-07-03T11:36:51.291Z,47.37
2023-07-03T11:44:34.247Z,48.24
2023-07-03T11:47:05.819Z,48.44
2023-07-03T11:49:38.868Z,48.60
2023-07-03T11:52:06.470Z,48.63
2023-07-03T11:54:36.595Z,47.95
2023-07-03T11:57:03.047Z,47.05
2023-07-03T11:59:32.644Z,46.08
2023-07-03T12:05:51.699Z,47.34
2023-07-03T12:08:24.316Z,47.44
2023-07-03T12:10:50.786Z,47.79
2023-07-03T12:13:44.806Z,47.89
2023-07-03T12:16:21.820Z,47.99
2023-07-03T12:18:57.690Z,47.58
2023-07-03T12:21:25.104Z,47.81
2023-07-03T12:23:52.523Z,47.59
2023-07-03T12:26:19.093Z,47.72
2023-07-03T12:28:46.255Z,48.20
2023-07-03T12:31:17.059Z,48.33
2023-07-03T12:33:53.202Z,48.14
2023-07-03T12:36:24.574Z,47.86
2023-07-03T12:38:51.179Z,47.92
2023-07-03T12:41:23.702Z,47.50
2023-07-03T12:44:00.049Z,47.89
2023-07-03T12:46:41.548Z,47.94
2023-07-03T12:49:12.574Z,47.74
2023-07-03T12:51:55.352Z,47.68
2023-07-03T12:54:23.380Z,48.13
2023-07-03T12:56:52.141Z,48.03
2023-07-03T12:59:23.977Z,48.39
2023-07-03T13:01:54.121Z,48.65
2023-07-03T13:04:29.360Z,48.70
2023-07-03T13:06:57.053Z,49.04
2023-07-03T13:09:24.979Z,49.38
2023-07-03T13:11:52.038Z,48.50
2023-07-03T13:14:24.060Z,48.68
2023-07-03T13:16:54.147Z,48.76
2023-07-03T13:19:31.784Z,49.13
2023-07-03T13:22:00.076Z,49.25
2023-07-03T13:24:28.651Z,49.59
2023-07-03T13:26:56.854Z,50.15
2023-07-03T13:29:31.583Z,49.54
2023-07-03T13:32:22.606Z,50.19
2023-07-03T13:35:02.262Z,49.10
2023-07-03T13:37:31.880Z,49.81
2023-07-03T13:40:02.053Z,50.11
2023-07-03T13:42:29.782Z,49.95
2023-07-03T13:44:56.259Z,50.53
2023-07-03T13:47:24.439Z,50.63
2023-07-03T13:49:53.194Z,50.66
2023-07-03T13:52:19.972Z,50.64
2023-07-03T13:54:46.631Z,50.99
2023-07-03T13:57:13.101Z,51.51
2023-07-03T13:59:39.593Z,51.42
2023-07-03T14:02:06.664Z,51.62
2023-07-03T14:04:33.195Z,52.02
2023-07-03T14:06:59.817Z,51.46
2023-07-03T14:09:27.126Z,51.26
2023-07-03T14:11:53.757Z,52.01
2023-07-03T14:14:20.799Z,51.92
2023-07-03T14:16:47.358Z,52.24
2023-07-03T14:19:13.868Z,52.16
2023-07-03T14:21:40.472Z,51.33
2023-07-03T14:24:06.992Z,51.83
2023-07-03T14:26:33.495Z,52.62
2023-07-03T14:29:00.007Z,51.28
2023-07-03T14:35:13.280Z,51.49
2023-07-03T14:37:39.771Z,52.70
2023-07-03T14:40:07.156Z,53.18
2023-07-03T14:42:33.935Z,53.08
2023-07-03T14:45:00.417Z,52.63
2023-07-03T14:47:26.995Z,52.68
2023-07-03T14:49:53.730Z,51.58
2023-07-03T14:52:20.650Z,52.32
2023-07-03T14:54:50.562Z,51.84
2023-07-03T14:57:17.111Z,51.97
2023-07-03T14:59:44.280Z,51.84
2023-07-03T15:02:11.031Z,52.01
2023-07-03T15:04:37.708Z,52.98
2023-07-03T15:07:04.477Z,53.52
2023-07-03T15:09:34.039Z,53.43
2023-07-03T15:12:00.593Z,52.54
2023-07-03T15:14:27.125Z,52.07
2023-07-03T15:16:53.600Z,52.48
2023-07-03T15:19:20.129Z,52.17
2023-07-03T15:21:46.582Z,52.24
2023-07-03T15:24:13.296Z,51.89
2023-07-03T15:26:39.874Z,51.37
2023-07-03T15:29:06.405Z,51.04
2023-07-03T15:31:32.945Z,50.23
2023-07-03T15:33:59.491Z,50.99
2023-07-03T15:36:26.307Z,51.24
2023-07-03T15:38:52.875Z,51.17
2023-07-03T15:41:19.395Z,50.80
2023-07-03T15:43:47.465Z,50.67
2023-07-03T15:46:17.521Z,49.99
2023-07-03T15:48:45.808Z,50.60
2023-07-03T15:51:14.221Z,50.49
2023-07-03T15:53:40.860Z,51.09
2023-07-03T15:56:15.021Z,50.45
2023-07-03T15:58:44.140Z,50.27
2023-07-03T16:01:18.260Z,50.26
2023-07-03T16:03:46.036Z,50.00
2023-07-03T16:06:15.111Z,50.31
2023-07-03T16:08:42.403Z,48.35
2023-07-03T16:11:12.184Z,48.63
2023-07-03T16:13:39.448Z,50.43
2023-07-03T16:16:08.474Z,50.59
2023-07-03T16:18:35.247Z,49.40
2023-07-03T16:21:03.905Z,49.38
2023-07-03T16:23:32.030Z,49.89
2023-07-03T16:26:03.650Z,50.14
2023-07-03T16:28:33.675Z,50.26
2023-07-03T16:31:05.942Z,51.28
2023-07-03T16:33:35.755Z,50.34
2023-07-03T16:36:07.524Z,50.81
2023-07-03T16:38:34.335Z,50.10
2023-07-03T16:41:05.791Z,50.26
2023-07-03T16:43:32.989Z,49.46
2023-07-03T16:46:06.602Z,50.47
2023-07-03T16:48:34.707Z,50.60
2023-07-03T16:51:03.121Z,49.37
2023-07-03T16:53:32.264Z,49.17
2023-07-03T16:56:11.096Z,50.09
2023-07-03T16:58:38.481Z,50.05
2023-07-03T17:01:10.896Z,48.46
2023-07-03T17:03:38.331Z,49.67
2023-07-03T17:06:08.613Z,50.07
2023-07-03T17:08:35.133Z,49.77
2023-07-03T17:11:02.029Z,51.13
2023-07-03T17:13:29.727Z,50.29
2023-07-03T17:15:56.794Z,50.33
2023-07-03T17:18:24.186Z,51.00
2023-07-03T17:20:51.003Z,51.13
2023-07-03T17:23:17.949Z,50.98
2023-07-03T17:25:44.696Z,51.26
2023-07-03T17:28:12.204Z,51.25
2023-07-03T17:30:39.810Z,50.60
2023-07-03T17:33:07.965Z,50.98
2023-07-03T17:35:45.663Z,51.17
2023-07-03T17:38:13.463Z,50.19
2023-07-03T17:40:42.866Z,50.55
2023-07-03T17:43:09.415Z,50.49
2023-07-03T17:45:35.939Z,50.49
2023-07-03T17:48:03.240Z,49.67
2023-07-03T17:50:29.859Z,50.67
2023-07-03T17:52:56.347Z,50.10
2023-07-03T17:55:23.128Z,51.26
2023-07-03T17:57:49.765Z,50.05
2023-07-03T18:00:16.552Z,50.01
2023-07-03T18:02:43.105Z,50.17
2023-07-03T18:05:10.764Z,50.52
2023-07-03T18:07:37.621Z,50.17
2023-07-03T18:10:04.636Z,50.96
2023-07-03T18:12:31.354Z,50.80
2023-07-03T18:14:57.936Z,50.46
2023-07-03T18:17:25.808Z,50.89
2023-07-03T18:19:52.298Z,51.37
2023-07-03T18:22:19.085Z,52.18
2023-07-03T18:24:45.663Z,51.85
2023-07-03T18:27:12.400Z,52.28
2023-07-03T18:29:38.969Z,52.68
2023-07-03T18:32:05.824Z,52.63
2023-07-03T18:34:32.316Z,53.59
2023-07-03T18:36:58.827Z,53.39
2023-07-03T18:39:25.436Z,53.43
2023-07-03T18:41:51.970Z,53.47
2023-07-03T18:44:18.445Z,53.91
2023-07-03T18:46:47.018Z,53.76
2023-07-03T18:49:15.207Z,53.89
2023-07-03T18:51:41.816Z,54.57
2023-07-03T18:54:08.317Z,54.53
2023-07-03T18:56:34.820Z,55.21
2023-07-03T18:59:01.357Z,55.47
2023-07-03T19:01:28.012Z,56.02
2023-07-03T19:03:54.741Z,56.23
2023-07-03T19:06:22.606Z,56.65
2023-07-03T19:08:49.097Z,56.33
2023-07-03T19:11:15.766Z,57.23
2023-07-03T19:13:42.299Z,57.28
2023-07-03T19:16:10.809Z,57.77
2023-07-03T19:18:38.015Z,57.65
2023-07-03T19:21:04.510Z,58.12
2023-07-03T19:23:31.054Z,58.94
2023-07-03T19:25:59.135Z,59.55
2023-07-03T19:28:27.169Z,60.11
2023-07-03T19:30:56.159Z,60.48
2023-07-03T19:33:23.406Z,61.30
2023-07-03T19:35:50.273Z,61.67
2023-07-03T19:38:17.839Z,61.43
2023-07-03T19:40:44.412Z,62.00
2023-07-03T19:43:11.594Z,62.76
2023-07-03T19:45:39.410Z,63.17
2023-07-03T19:48:08.231Z,63.52
2023-07-03T19:50:37.958Z,64.73
2023-07-03T19:53:06.912Z,65.67
2023-07-03T19:55:34.469Z,66.50
2023-07-03T19:58:01.069Z,67.13
2023-07-03T20:00:27.748Z,67.01
2023-07-03T20:02:55.323Z,66.99
2023-07-03T20:05:22.936Z,68.35
2023-07-03T20:07:50.878Z,69.04
2023-07-03T20:10:17.485Z,69.44
2023-07-03T20:12:44.704Z,70.14
2023-07-03T20:15:11.686Z,70.89
2023-07-03T20:17:40.171Z,72.51
2023-07-03T20:20:07.861Z,71.52
2023-07-03T20:22:36.280Z,72.68
2023-07-03T20:25:03.575Z,73.29
2023-07-03T20:27:31.023Z,73.01
2023-07-03T20:29:57.838Z,73.31
2023-07-03T20:32:24.620Z,73.89
2023-07-03T20:34:52.207Z,73.71
2023-07-03T20:37:19.189Z,74.84
2023-07-03T20:39:46.766Z,76.12
2023-07-03T20:42:13.510Z,76.15
2023-07-03T20:44:42.444Z,76.69
2023-07-03T20:47:10.494Z,75.44
2023-07-03T20:49:37.087Z,77.44
2023-07-03T20:52:05.254Z,77.77
2023-07-03T20:54:38.107Z,79.20
2023-07-03T20:57:05.698Z,80.76
2023-07-03T20:59:35.574Z,82.88
2023-07-03T21:02:02.753Z,84.37
2023-07-03T21:04:29.318Z,86.04
2023-07-03T21:06:56.278Z,87.51
2023-07-03T21:09:22.983Z,88.68
2023-07-03T21:11:50.817Z,90.34
2023-07-03T21:14:18.428Z,91.94
2023-07-03T21:16:45.086Z,92.63
2023-07-03T21:19:13.371Z,93.56
2023-07-03T21:21:40.540Z,92.71
2023-07-03T21:24:11.783Z,94.42
2023-07-03T21:26:38.520Z,95.04
2023-07-03T21:29:05.826Z,96.03
2023-07-03T21:31:35.435Z,97.73
2023-07-03T21:34:02.371Z,99.45
2023-07-03T21:36:30.981Z,100.00
2023-07-03T21:38:59.301Z,100.00
2023-07-03T21:41:33.403Z,100.00
2023-07-03T21:44:04.823Z,100.00
2023-07-03T21:46:32.771Z,100.00
2023-07-03T21:48:59.637Z,100.00
2023-07-03T21:51:29.931Z,100.00
2023-07-03T21:53:57.383Z,100.00
2023-07-03T21:56:30.893Z,100.00
2023-07-03T21:59:00.251Z,100.00
2023-07-03T22:01:29.320Z,100.00
2023-07-03T22:03:56.072Z,100.00
2023-07-03T22:06:24.831Z,100.00
2023-07-03T22:08:51.688Z,100.00
2023-07-03T22:11:18.443Z,100.00
2023-07-03T22:13:45.584Z,100.00
2023-07-03T22:16:16.511Z,100.00
2023-07-03T22:18:44.433Z,100.00
2023-07-03T22:21:11.354Z,100.00
2023-07-03T22:23:38.568Z,100.00
2023-07-03T22:26:05.041Z,100.00
2023-07-03T22:28:31.536Z,100.00
2023-07-03T22:30:59.107Z,100.00
2023-07-03T22:33:25.931Z,100.00
2023-07-03T22:35:53.457Z,100.00
2023-07-03T22:38:20.681Z,100.00
2023-07-03T22:40:50.411Z,100.00
2023-07-03T22:43:17.277Z,100.00
2023-07-03T22:45:43.764Z,100.00
2023-07-03T22:48:10.349Z,100.00
2023-07-03T22:50:40.797Z,100.00
2023-07-03T22:53:08.060Z,100.00
2023-07-03T22:55:41.825Z,100.00
2023-07-03T22:58:11.619Z,100.00
2023-07-03T23:00:41.342Z,100.00
2023-07-03T23:03:10.081Z,100.00
2023-07-03T23:05:48.264Z,100.00
2023-07-03T23:08:16.208Z,100.00
2023-07-03T23:10:54.530Z,100.00
2023-07-03T23:13:22.479Z,100.00
2023-07-03T23:16:01.384Z,100.00
2023-07-03T23:18:30.947Z,100.00
2023-07-03T23:21:00.448Z,100.00
2023-07-03T23:23:30.407Z,100.00
2023-07-03T23:26:04.669Z,100.00
2023-07-03T23:28:32.856Z,100.00
2023-07-03T23:31:01.292Z,100.00
2023-07-03T23:33:30.346Z,100.00
2023-07-03T23:35:58.242Z,100.00
2023-07-03T23:38:27.415Z,100.00
2023-07-03T23:40:57.103Z,100.00
2023-07-03T23:43:24.123Z,100.00
2023-07-03T23:45:53.388Z,100.00
2023-07-03T23:48:20.580Z,100.00
2023-07-03T23:50:56.100Z,100.00
2023-07-03T23:53:24.447Z,100.00
2023-07-03T23:55:53.505Z,100.00
2023-07-03T23:58:22.582Z,100.00
